Station: EBLG - 18/02/2019 04:50Z (il y a 33 minutes)
EBLG 180450Z 16008KT CAVOK 08/M02 Q1019 NOSIG
Vent du 160º - 8 kt
Visibilité > 10 km et plafond haut ou pas de nuages significatifs
Température: +08ºC - Point de rosée: -02ºC - QNH: 1019 hPa
Pas de changement significatif prévu dans les 2 heures qui suivent l'observation